Pagina principală
METAR-TAF:

METAR-TAF

Aeroporturi :

Villamontes, Bolivia

Latitudine: 21-15S, longitudine: 063-27W, elevație: 398 m

Observații meteo curente

Raportul a fost făcut în urmă cu 13 ore și 18 de minute, la 21:00 UTC
Vânt calm
Temperatură 14°C
Umiditate 63%
Presiune 1026 hPa
Vizibilitate de 10 km sau mai mult
Nori puțini la o înălțime de 2000 picior
Nori împrăștiați la o înălțime de 3000 picior
Total acoperit la o înălțime de 7000 picior

METAR: SLVM 272100Z 00000KT 9999 FEW020 SCT030 OVC070 14/07 Q1026

Ora: 06:18 (10:18 UTC)


TAF: lipsă

Observații și prognoze meteo pentru peste 4.000 de aeroporturi (rapoarte METAR și TAF).

Stațiile disponibile sunt reprezentate pe hartă prin puncte galbene și roșii.

Țineți indicatorul mouse-ului pe punctul dorit pentru a vedea denumirea stației.

Apoi, faceți clic pentru a vedea observațiile și prognozele meteorologice.

Pentru a schimba harta: Pentru mărire, faceți clic pe butoanele verzi cu cruce neagră; pentru micșorare, pe butonul verde cu o liniuță; pentru hărți învecinate, pe săgețile verzi.


METAR-TAF: